sensor_id;sensor_type;location;lat;lon;timestamp;P1;durP1;ratioP1;P2;durP2;ratioP2
22034;SDS011;11181;51.002;4.356;2023-04-23T00:01:21;19.47;;;14.40;;
22034;SDS011;11181;51.002;4.356;2023-04-23T00:03:51;19.10;;;14.10;;
22034;SDS011;11181;51.002;4.356;2023-04-23T00:06:22;16.80;;;13.10;;
22034;SDS011;11181;51.002;4.356;2023-04-23T00:08:50;20.27;;;14.20;;
22034;SDS011;11181;51.002;4.356;2023-04-23T00:11:19;19.13;;;13.43;;
22034;SDS011;11181;51.002;4.356;2023-04-23T00:13:46;17.00;;;12.40;;
22034;SDS011;11181;51.002;4.356;2023-04-23T00:16:17;18.67;;;12.83;;
22034;SDS011;11181;51.002;4.356;2023-04-23T00:18:44;18.00;;;14.37;;
22034;SDS011;11181;51.002;4.356;2023-04-23T00:21:11;18.17;;;13.27;;
22034;SDS011;11181;51.002;4.356;2023-04-23T00:23:40;17.50;;;14.13;;
22034;SDS011;11181;51.002;4.356;2023-04-23T00:26:07;17.67;;;12.60;;
22034;SDS011;11181;51.002;4.356;2023-04-23T00:28:34;19.47;;;14.10;;
22034;SDS011;11181;51.002;4.356;2023-04-23T00:31:00;17.77;;;13.87;;
22034;SDS011;11181;51.002;4.356;2023-04-23T00:33:29;17.83;;;13.97;;
22034;SDS011;11181;51.002;4.356;2023-04-23T00:35:56;17.67;;;13.73;;
22034;SDS011;11181;51.002;4.356;2023-04-23T00:38:22;18.90;;;13.70;;
22034;SDS011;11181;51.002;4.356;2023-04-23T00:40:50;17.80;;;14.07;;
22034;SDS011;11181;51.002;4.356;2023-04-23T00:43:17;16.10;;;12.43;;
22034;SDS011;11181;51.002;4.356;2023-04-23T00:45:44;18.50;;;13.70;;
22034;SDS011;11181;51.002;4.356;2023-04-23T00:48:12;19.00;;;13.77;;
22034;SDS011;11181;51.002;4.356;2023-04-23T00:50:40;17.77;;;13.37;;
22034;SDS011;11181;51.002;4.356;2023-04-23T00:53:07;17.33;;;13.40;;
22034;SDS011;11181;51.002;4.356;2023-04-23T00:55:34;16.30;;;13.77;;
22034;SDS011;11181;51.002;4.356;2023-04-23T00:58:01;16.33;;;13.10;;
22034;SDS011;11181;51.002;4.356;2023-04-23T01:00:30;15.17;;;12.43;;
22034;SDS011;11181;51.002;4.356;2023-04-23T01:02:59;20.43;;;12.80;;
22034;SDS011;11181;51.002;4.356;2023-04-23T01:05:26;18.93;;;13.77;;
22034;SDS011;11181;51.002;4.356;2023-04-23T01:07:54;15.73;;;11.90;;
22034;SDS011;11181;51.002;4.356;2023-04-23T01:10:21;16.93;;;11.67;;
22034;SDS011;11181;51.002;4.356;2023-04-23T01:12:49;15.87;;;11.37;;
22034;SDS011;11181;51.002;4.356;2023-04-23T01:15:16;15.17;;;10.57;;
22034;SDS011;11181;51.002;4.356;2023-04-23T01:17:43;14.20;;;10.07;;
22034;SDS011;11181;51.002;4.356;2023-04-23T01:20:10;15.57;;;11.20;;
22034;SDS011;11181;51.002;4.356;2023-04-23T01:22:38;12.03;;;9.57;;
22034;SDS011;11181;51.002;4.356;2023-04-23T01:25:06;11.97;;;10.10;;
22034;SDS011;11181;51.002;4.356;2023-04-23T01:27:34;13.53;;;10.33;;
22034;SDS011;11181;51.002;4.356;2023-04-23T01:30:03;14.50;;;10.43;;
22034;SDS011;11181;51.002;4.356;2023-04-23T01:32:31;13.80;;;10.13;;
22034;SDS011;11181;51.002;4.356;2023-04-23T01:34:59;13.37;;;10.13;;
22034;SDS011;11181;51.002;4.356;2023-04-23T01:37:26;14.23;;;10.27;;
22034;SDS011;11181;51.002;4.356;2023-04-23T01:39:56;15.70;;;8.93;;
22034;SDS011;11181;51.002;4.356;2023-04-23T01:42:23;14.13;;;10.63;;
22034;SDS011;11181;51.002;4.356;2023-04-23T01:44:50;16.23;;;10.20;;
22034;SDS011;11181;51.002;4.356;2023-04-23T01:47:17;14.60;;;9.97;;
22034;SDS011;11181;51.002;4.356;2023-04-23T01:49:45;12.87;;;9.70;;
22034;SDS011;11181;51.002;4.356;2023-04-23T01:52:12;14.60;;;9.67;;
22034;SDS011;11181;51.002;4.356;2023-04-23T01:54:39;11.20;;;8.63;;
22034;SDS011;11181;51.002;4.356;2023-04-23T01:57:07;15.87;;;9.77;;
22034;SDS011;11181;51.002;4.356;2023-04-23T01:59:36;13.10;;;9.90;;
22034;SDS011;11181;51.002;4.356;2023-04-23T02:02:04;15.47;;;10.80;;
22034;SDS011;11181;51.002;4.356;2023-04-23T02:04:34;17.27;;;10.50;;
22034;SDS011;11181;51.002;4.356;2023-04-23T02:07:03;14.27;;;10.23;;
22034;SDS011;11181;51.002;4.356;2023-04-23T02:09:30;11.13;;;9.33;;
22034;SDS011;11181;51.002;4.356;2023-04-23T02:11:57;12.63;;;9.70;;
22034;SDS011;11181;51.002;4.356;2023-04-23T02:14:27;12.87;;;9.60;;
22034;SDS011;11181;51.002;4.356;2023-04-23T02:16:54;16.13;;;9.83;;
22034;SDS011;11181;51.002;4.356;2023-04-23T02:19:21;12.23;;;9.67;;
22034;SDS011;11181;51.002;4.356;2023-04-23T02:21:48;11.50;;;8.70;;
22034;SDS011;11181;51.002;4.356;2023-04-23T02:24:15;13.83;;;9.60;;
22034;SDS011;11181;51.002;4.356;2023-04-23T02:26:42;13.00;;;9.30;;
22034;SDS011;11181;51.002;4.356;2023-04-23T02:29:09;12.43;;;10.03;;
22034;SDS011;11181;51.002;4.356;2023-04-23T02:31:37;14.90;;;8.20;;
22034;SDS011;11181;51.002;4.356;2023-04-23T02:34:04;12.00;;;8.10;;
22034;SDS011;11181;51.002;4.356;2023-04-23T02:36:32;12.33;;;9.00;;
22034;SDS011;11181;51.002;4.356;2023-04-23T02:38:59;11.07;;;8.93;;
22034;SDS011;11181;51.002;4.356;2023-04-23T02:41:26;13.80;;;9.33;;
22034;SDS011;11181;51.002;4.356;2023-04-23T02:43:52;10.37;;;8.00;;
22034;SDS011;11181;51.002;4.356;2023-04-23T02:46:19;9.00;;;7.70;;
22034;SDS011;11181;51.002;4.356;2023-04-23T02:48:47;11.80;;;8.40;;
22034;SDS011;11181;51.002;4.356;2023-04-23T02:51:14;12.03;;;8.17;;
22034;SDS011;11181;51.002;4.356;2023-04-23T02:53:41;8.83;;;7.53;;
22034;SDS011;11181;51.002;4.356;2023-04-23T02:56:08;9.97;;;7.67;;
22034;SDS011;11181;51.002;4.356;2023-04-23T02:58:35;10.47;;;6.87;;
22034;SDS011;11181;51.002;4.356;2023-04-23T03:01:02;10.30;;;7.73;;
22034;SDS011;11181;51.002;4.356;2023-04-23T03:03:30;11.70;;;8.33;;
22034;SDS011;11181;51.002;4.356;2023-04-23T03:05:59;11.60;;;6.83;;
22034;SDS011;11181;51.002;4.356;2023-04-23T03:08:27;9.63;;;7.67;;
22034;SDS011;11181;51.002;4.356;2023-04-23T03:10:54;11.73;;;7.97;;
22034;SDS011;11181;51.002;4.356;2023-04-23T03:13:21;11.43;;;8.77;;
22034;SDS011;11181;51.002;4.356;2023-04-23T03:15:48;10.83;;;8.10;;
22034;SDS011;11181;51.002;4.356;2023-04-23T03:18:16;11.37;;;7.90;;
22034;SDS011;11181;51.002;4.356;2023-04-23T03:20:43;12.47;;;8.67;;
22034;SDS011;11181;51.002;4.356;2023-04-23T03:23:11;11.00;;;8.60;;
22034;SDS011;11181;51.002;4.356;2023-04-23T03:25:38;10.20;;;7.93;;
22034;SDS011;11181;51.002;4.356;2023-04-23T03:28:05;10.43;;;8.30;;
22034;SDS011;11181;51.002;4.356;2023-04-23T03:30:32;11.90;;;9.07;;
22034;SDS011;11181;51.002;4.356;2023-04-23T03:32:59;10.77;;;8.33;;
22034;SDS011;11181;51.002;4.356;2023-04-23T03:35:26;13.33;;;8.90;;
22034;SDS011;11181;51.002;4.356;2023-04-23T03:37:53;9.23;;;7.63;;
22034;SDS011;11181;51.002;4.356;2023-04-23T03:40:22;9.83;;;7.40;;
22034;SDS011;11181;51.002;4.356;2023-04-23T03:42:49;11.43;;;8.30;;
22034;SDS011;11181;51.002;4.356;2023-04-23T03:45:16;10.77;;;7.83;;
22034;SDS011;11181;51.002;4.356;2023-04-23T03:47:42;11.00;;;7.97;;
22034;SDS011;11181;51.002;4.356;2023-04-23T03:50:10;12.80;;;8.33;;
22034;SDS011;11181;51.002;4.356;2023-04-23T03:52:37;9.50;;;6.97;;
22034;SDS011;11181;51.002;4.356;2023-04-23T03:55:05;10.40;;;7.33;;
22034;SDS011;11181;51.002;4.356;2023-04-23T03:57:34;11.57;;;8.30;;
22034;SDS011;11181;51.002;4.356;2023-04-23T04:00:01;8.93;;;6.70;;
22034;SDS011;11181;51.002;4.356;2023-04-23T04:02:29;11.97;;;7.37;;
22034;SDS011;11181;51.002;4.356;2023-04-23T04:04:56;11.00;;;8.53;;
22034;SDS011;11181;51.002;4.356;2023-04-23T04:07:23;11.27;;;7.40;;
22034;SDS011;11181;51.002;4.356;2023-04-23T04:09:49;10.07;;;7.30;;
22034;SDS011;11181;51.002;4.356;2023-04-23T04:12:16;10.57;;;7.57;;
22034;SDS011;11181;51.002;4.356;2023-04-23T04:14:45;9.63;;;7.53;;
22034;SDS011;11181;51.002;4.356;2023-04-23T04:17:11;9.13;;;7.63;;
22034;SDS011;11181;51.002;4.356;2023-04-23T04:19:40;8.17;;;6.77;;
22034;SDS011;11181;51.002;4.356;2023-04-23T04:22:07;10.43;;;7.07;;
22034;SDS011;11181;51.002;4.356;2023-04-23T04:24:33;9.30;;;8.33;;
22034;SDS011;11181;51.002;4.356;2023-04-23T04:27:01;10.30;;;7.10;;
22034;SDS011;11181;51.002;4.356;2023-04-23T04:29:28;9.90;;;7.00;;
22034;SDS011;11181;51.002;4.356;2023-04-23T04:31:57;7.87;;;7.07;;
22034;SDS011;11181;51.002;4.356;2023-04-23T04:34:25;12.10;;;7.23;;
22034;SDS011;11181;51.002;4.356;2023-04-23T04:36:52;11.20;;;6.80;;
22034;SDS011;11181;51.002;4.356;2023-04-23T04:39:19;9.57;;;6.67;;
22034;SDS011;11181;51.002;4.356;2023-04-23T04:41:46;9.00;;;6.77;;
22034;SDS011;11181;51.002;4.356;2023-04-23T04:44:13;9.00;;;6.17;;
22034;SDS011;11181;51.002;4.356;2023-04-23T04:46:40;12.03;;;6.67;;
22034;SDS011;11181;51.002;4.356;2023-04-23T04:49:09;11.23;;;7.40;;
22034;SDS011;11181;51.002;4.356;2023-04-23T04:51:37;10.77;;;7.17;;
22034;SDS011;11181;51.002;4.356;2023-04-23T04:54:05;9.07;;;6.37;;
22034;SDS011;11181;51.002;4.356;2023-04-23T04:56:32;9.53;;;7.13;;
22034;SDS011;11181;51.002;4.356;2023-04-23T04:58:59;9.67;;;6.43;;
22034;SDS011;11181;51.002;4.356;2023-04-23T05:01:26;8.80;;;6.33;;
22034;SDS011;11181;51.002;4.356;2023-04-23T05:03:53;10.97;;;6.77;;
22034;SDS011;11181;51.002;4.356;2023-04-23T05:06:22;11.27;;;6.50;;
22034;SDS011;11181;51.002;4.356;2023-04-23T05:08:49;7.53;;;6.03;;
22034;SDS011;11181;51.002;4.356;2023-04-23T05:11:16;8.87;;;6.67;;
22034;SDS011;11181;51.002;4.356;2023-04-23T05:13:44;9.87;;;6.40;;
22034;SDS011;11181;51.002;4.356;2023-04-23T05:16:11;9.27;;;6.60;;
22034;SDS011;11181;51.002;4.356;2023-04-23T05:18:38;11.23;;;6.50;;
22034;SDS011;11181;51.002;4.356;2023-04-23T05:21:05;7.30;;;5.83;;
22034;SDS011;11181;51.002;4.356;2023-04-23T05:23:33;8.30;;;5.13;;
22034;SDS011;11181;51.002;4.356;2023-04-23T05:26:00;7.77;;;5.80;;
22034;SDS011;11181;51.002;4.356;2023-04-23T05:28:28;9.00;;;5.60;;
22034;SDS011;11181;51.002;4.356;2023-04-23T05:30:55;11.10;;;5.63;;
22034;SDS011;11181;51.002;4.356;2023-04-23T05:33:23;6.80;;;5.00;;
22034;SDS011;11181;51.002;4.356;2023-04-23T05:35:50;10.37;;;5.13;;
22034;SDS011;11181;51.002;4.356;2023-04-23T05:38:17;7.10;;;4.77;;
22034;SDS011;11181;51.002;4.356;2023-04-23T05:40:45;6.90;;;5.13;;
22034;SDS011;11181;51.002;4.356;2023-04-23T05:43:12;9.73;;;5.00;;
22034;SDS011;11181;51.002;4.356;2023-04-23T05:45:39;15.33;;;4.80;;
22034;SDS011;11181;51.002;4.356;2023-04-23T05:48:06;6.90;;;4.70;;
22034;SDS011;11181;51.002;4.356;2023-04-23T05:50:33;9.83;;;5.50;;
22034;SDS011;11181;51.002;4.356;2023-04-23T05:52:59;7.33;;;4.37;;
22034;SDS011;11181;51.002;4.356;2023-04-23T05:55:26;6.97;;;4.20;;
22034;SDS011;11181;51.002;4.356;2023-04-23T05:57:55;7.93;;;3.97;;
22034;SDS011;11181;51.002;4.356;2023-04-23T06:00:22;6.80;;;4.40;;
22034;SDS011;11181;51.002;4.356;2023-04-23T06:02:49;10.07;;;4.23;;
22034;SDS011;11181;51.002;4.356;2023-04-23T06:05:15;9.17;;;3.80;;
22034;SDS011;11181;51.002;4.356;2023-04-23T06:07:42;11.40;;;4.37;;
22034;SDS011;11181;51.002;4.356;2023-04-23T06:10:10;6.93;;;3.90;;
22034;SDS011;11181;51.002;4.356;2023-04-23T06:12:37;9.07;;;4.37;;
22034;SDS011;11181;51.002;4.356;2023-04-23T06:15:08;7.00;;;3.80;;
22034;SDS011;11181;51.002;4.356;2023-04-23T06:17:35;7.17;;;3.30;;
22034;SDS011;11181;51.002;4.356;2023-04-23T06:20:03;7.70;;;4.27;;
22034;SDS011;11181;51.002;4.356;2023-04-23T06:22:30;7.37;;;2.87;;
22034;SDS011;11181;51.002;4.356;2023-04-23T06:24:57;6.80;;;3.27;;
22034;SDS011;11181;51.002;4.356;2023-04-23T06:27:24;4.87;;;3.27;;
22034;SDS011;11181;51.002;4.356;2023-04-23T06:29:52;10.17;;;3.47;;
22034;SDS011;11181;51.002;4.356;2023-04-23T06:32:20;10.27;;;5.00;;
22034;SDS011;11181;51.002;4.356;2023-04-23T06:34:48;7.40;;;3.17;;
22034;SDS011;11181;51.002;4.356;2023-04-23T06:37:15;5.77;;;3.17;;
22034;SDS011;11181;51.002;4.356;2023-04-23T06:39:42;6.17;;;2.73;;
22034;SDS011;11181;51.002;4.356;2023-04-23T06:42:09;7.00;;;2.63;;
22034;SDS011;11181;51.002;4.356;2023-04-23T06:44:36;7.03;;;3.03;;
22034;SDS011;11181;51.002;4.356;2023-04-23T06:47:03;5.30;;;2.63;;
22034;SDS011;11181;51.002;4.356;2023-04-23T06:49:31;6.70;;;2.50;;
22034;SDS011;11181;51.002;4.356;2023-04-23T06:51:58;7.40;;;2.60;;
22034;SDS011;11181;51.002;4.356;2023-04-23T06:54:25;7.77;;;2.73;;
22034;SDS011;11181;51.002;4.356;2023-04-23T06:56:52;4.60;;;2.47;;
22034;SDS011;11181;51.002;4.356;2023-04-23T06:59:19;8.57;;;2.57;;
22034;SDS011;11181;51.002;4.356;2023-04-23T07:01:46;8.50;;;2.53;;
22034;SDS011;11181;51.002;4.356;2023-04-23T07:04:13;8.97;;;2.33;;
22034;SDS011;11181;51.002;4.356;2023-04-23T07:06:41;6.70;;;2.33;;
22034;SDS011;11181;51.002;4.356;2023-04-23T07:09:08;9.37;;;2.23;;
22034;SDS011;11181;51.002;4.356;2023-04-23T07:11:35;13.70;;;2.70;;
22034;SDS011;11181;51.002;4.356;2023-04-23T07:14:02;6.63;;;2.63;;
22034;SDS011;11181;51.002;4.356;2023-04-23T07:16:31;4.10;;;1.90;;
22034;SDS011;11181;51.002;4.356;2023-04-23T07:18:58;5.23;;;1.83;;
22034;SDS011;11181;51.002;4.356;2023-04-23T07:21:26;3.63;;;2.30;;
22034;SDS011;11181;51.002;4.356;2023-04-23T07:23:55;6.60;;;2.30;;
22034;SDS011;11181;51.002;4.356;2023-04-23T07:26:23;10.03;;;2.30;;
22034;SDS011;11181;51.002;4.356;2023-04-23T07:28:51;3.00;;;1.70;;
22034;SDS011;11181;51.002;4.356;2023-04-23T07:31:18;5.37;;;1.97;;
22034;SDS011;11181;51.002;4.356;2023-04-23T07:33:45;4.43;;;1.70;;
22034;SDS011;11181;51.002;4.356;2023-04-23T07:36:12;4.83;;;2.37;;
22034;SDS011;11181;51.002;4.356;2023-04-23T07:38:39;4.33;;;1.90;;
22034;SDS011;11181;51.002;4.356;2023-04-23T07:41:08;7.87;;;2.60;;
22034;SDS011;11181;51.002;4.356;2023-04-23T07:43:35;5.13;;;2.57;;
22034;SDS011;11181;51.002;4.356;2023-04-23T07:46:02;7.87;;;2.10;;
22034;SDS011;11181;51.002;4.356;2023-04-23T07:48:29;5.70;;;2.43;;
22034;SDS011;11181;51.002;4.356;2023-04-23T07:50:58;6.47;;;2.40;;
22034;SDS011;11181;51.002;4.356;2023-04-23T07:53:25;4.53;;;1.70;;
22034;SDS011;11181;51.002;4.356;2023-04-23T07:55:53;4.80;;;2.03;;
22034;SDS011;11181;51.002;4.356;2023-04-23T07:58:23;4.43;;;1.80;;
22034;SDS011;11181;51.002;4.356;2023-04-23T08:00:50;7.77;;;1.90;;
22034;SDS011;11181;51.002;4.356;2023-04-23T08:03:17;5.93;;;1.80;;
22034;SDS011;11181;51.002;4.356;2023-04-23T08:05:44;7.13;;;1.97;;
22034;SDS011;11181;51.002;4.356;2023-04-23T08:08:11;5.40;;;1.93;;
22034;SDS011;11181;51.002;4.356;2023-04-23T08:10:38;8.93;;;2.97;;
22034;SDS011;11181;51.002;4.356;2023-04-23T08:13:06;4.30;;;1.57;;
22034;SDS011;11181;51.002;4.356;2023-04-23T08:15:34;5.47;;;1.70;;
22034;SDS011;11181;51.002;4.356;2023-04-23T08:18:02;4.67;;;1.40;;
22034;SDS011;11181;51.002;4.356;2023-04-23T08:20:29;4.87;;;1.33;;
22034;SDS011;11181;51.002;4.356;2023-04-23T08:22:56;6.77;;;1.87;;
22034;SDS011;11181;51.002;4.356;2023-04-23T08:25:24;8.93;;;1.70;;
22034;SDS011;11181;51.002;4.356;2023-04-23T08:27:51;7.23;;;1.73;;
22034;SDS011;11181;51.002;4.356;2023-04-23T08:30:18;6.37;;;2.13;;
22034;SDS011;11181;51.002;4.356;2023-04-23T08:32:46;4.67;;;1.60;;
22034;SDS011;11181;51.002;4.356;2023-04-23T08:35:15;5.20;;;2.00;;
22034;SDS011;11181;51.002;4.356;2023-04-23T08:37:42;3.97;;;1.43;;
22034;SDS011;11181;51.002;4.356;2023-04-23T08:40:09;7.07;;;2.00;;
22034;SDS011;11181;51.002;4.356;2023-04-23T08:42:37;10.27;;;2.40;;
22034;SDS011;11181;51.002;4.356;2023-04-23T08:45:09;3.10;;;1.90;;
22034;SDS011;11181;51.002;4.356;2023-04-23T08:47:36;4.63;;;1.87;;
22034;SDS011;11181;51.002;4.356;2023-04-23T08:50:08;4.50;;;1.77;;
22034;SDS011;11181;51.002;4.356;2023-04-23T08:52:37;6.90;;;1.70;;
22034;SDS011;11181;51.002;4.356;2023-04-23T08:55:06;3.50;;;1.53;;
22034;SDS011;11181;51.002;4.356;2023-04-23T08:57:35;6.70;;;1.60;;
22034;SDS011;11181;51.002;4.356;2023-04-23T09:00:05;5.30;;;1.77;;
22034;SDS011;11181;51.002;4.356;2023-04-23T09:02:35;4.37;;;1.70;;
22034;SDS011;11181;51.002;4.356;2023-04-23T09:05:02;7.87;;;2.10;;
22034;SDS011;11181;51.002;4.356;2023-04-23T09:07:31;5.83;;;1.33;;
22034;SDS011;11181;51.002;4.356;2023-04-23T09:09:58;7.73;;;1.90;;
22034;SDS011;11181;51.002;4.356;2023-04-23T09:12:25;6.37;;;2.17;;
22034;SDS011;11181;51.002;4.356;2023-04-23T09:14:52;4.00;;;1.57;;
22034;SDS011;11181;51.002;4.356;2023-04-23T09:17:19;7.67;;;1.50;;
22034;SDS011;11181;51.002;4.356;2023-04-23T09:19:49;5.00;;;1.57;;
22034;SDS011;11181;51.002;4.356;2023-04-23T09:22:16;4.27;;;1.63;;
22034;SDS011;11181;51.002;4.356;2023-04-23T09:25:05;6.57;;;3.07;;
22034;SDS011;11181;51.002;4.356;2023-04-23T09:27:33;5.83;;;1.20;;
22034;SDS011;11181;51.002;4.356;2023-04-23T09:30:00;3.93;;;1.63;;
22034;SDS011;11181;51.002;4.356;2023-04-23T09:32:32;8.50;;;1.50;;
22034;SDS011;11181;51.002;4.356;2023-04-23T09:35:00;3.93;;;1.30;;
22034;SDS011;11181;51.002;4.356;2023-04-23T09:37:29;7.53;;;1.60;;
22034;SDS011;11181;51.002;4.356;2023-04-23T09:39:58;6.27;;;1.80;;
22034;SDS011;11181;51.002;4.356;2023-04-23T09:42:28;6.47;;;1.77;;
22034;SDS011;11181;51.002;4.356;2023-04-23T09:44:55;7.00;;;2.00;;
22034;SDS011;11181;51.002;4.356;2023-04-23T09:47:23;5.13;;;1.60;;
22034;SDS011;11181;51.002;4.356;2023-04-23T09:49:50;6.97;;;2.43;;
22034;SDS011;11181;51.002;4.356;2023-04-23T09:52:17;5.03;;;1.77;;
22034;SDS011;11181;51.002;4.356;2023-04-23T09:54:45;6.83;;;1.40;;
22034;SDS011;11181;51.002;4.356;2023-04-23T09:57:13;5.40;;;1.30;;
22034;SDS011;11181;51.002;4.356;2023-04-23T09:59:41;4.03;;;1.40;;
22034;SDS011;11181;51.002;4.356;2023-04-23T10:02:08;5.27;;;1.50;;
22034;SDS011;11181;51.002;4.356;2023-04-23T10:04:36;5.47;;;1.50;;
22034;SDS011;11181;51.002;4.356;2023-04-23T10:07:05;4.30;;;1.53;;
22034;SDS011;11181;51.002;4.356;2023-04-23T10:09:37;5.93;;;1.17;;
22034;SDS011;11181;51.002;4.356;2023-04-23T10:12:06;6.33;;;1.40;;
22034;SDS011;11181;51.002;4.356;2023-04-23T10:14:36;3.77;;;1.30;;
22034;SDS011;11181;51.002;4.356;2023-04-23T10:17:05;5.10;;;1.20;;
22034;SDS011;11181;51.002;4.356;2023-04-23T10:19:33;2.57;;;1.10;;
22034;SDS011;11181;51.002;4.356;2023-04-23T10:22:05;3.33;;;1.47;;
22034;SDS011;11181;51.002;4.356;2023-04-23T10:24:36;3.83;;;1.10;;
22034;SDS011;11181;51.002;4.356;2023-04-23T10:27:08;8.73;;;1.73;;
22034;SDS011;11181;51.002;4.356;2023-04-23T10:29:39;2.93;;;1.33;;
22034;SDS011;11181;51.002;4.356;2023-04-23T10:32:08;6.00;;;1.60;;
22034;SDS011;11181;51.002;4.356;2023-04-23T10:34:36;4.90;;;1.50;;
22034;SDS011;11181;51.002;4.356;2023-04-23T10:37:05;5.90;;;1.07;;
22034;SDS011;11181;51.002;4.356;2023-04-23T10:39:33;5.80;;;1.23;;
22034;SDS011;11181;51.002;4.356;2023-04-23T10:42:01;4.57;;;1.10;;
22034;SDS011;11181;51.002;4.356;2023-04-23T10:44:32;3.40;;;1.13;;
22034;SDS011;11181;51.002;4.356;2023-04-23T10:47:01;5.10;;;1.60;;
22034;SDS011;11181;51.002;4.356;2023-04-23T10:49:29;3.43;;;0.93;;
22034;SDS011;11181;51.002;4.356;2023-04-23T10:51:58;6.07;;;1.63;;
22034;SDS011;11181;51.002;4.356;2023-04-23T10:54:29;5.07;;;1.83;;
22034;SDS011;11181;51.002;4.356;2023-04-23T10:56:58;4.23;;;1.20;;
22034;SDS011;11181;51.002;4.356;2023-04-23T10:59:27;6.87;;;1.70;;
22034;SDS011;11181;51.002;4.356;2023-04-23T11:01:57;3.57;;;2.13;;
22034;SDS011;11181;51.002;4.356;2023-04-23T11:04:32;7.40;;;1.03;;
22034;SDS011;11181;51.002;4.356;2023-04-23T11:07:04;7.57;;;1.53;;
22034;SDS011;11181;51.002;4.356;2023-04-23T11:09:39;5.93;;;1.10;;
22034;SDS011;11181;51.002;4.356;2023-04-23T11:12:07;4.07;;;1.10;;
22034;SDS011;11181;51.002;4.356;2023-04-23T11:14:41;10.53;;;1.73;;
22034;SDS011;11181;51.002;4.356;2023-04-23T11:17:11;4.77;;;1.20;;
22034;SDS011;11181;51.002;4.356;2023-04-23T11:19:43;3.30;;;1.00;;
22034;SDS011;11181;51.002;4.356;2023-04-23T11:22:36;10.23;;;1.30;;
22034;SDS011;11181;51.002;4.356;2023-04-23T11:25:03;4.10;;;1.40;;
22034;SDS011;11181;51.002;4.356;2023-04-23T11:27:33;4.20;;;1.63;;
22034;SDS011;11181;51.002;4.356;2023-04-23T11:30:05;4.07;;;1.20;;
22034;SDS011;11181;51.002;4.356;2023-04-23T11:32:36;5.87;;;1.50;;
22034;SDS011;11181;51.002;4.356;2023-04-23T11:35:05;5.57;;;1.40;;
22034;SDS011;11181;51.002;4.356;2023-04-23T11:37:37;5.50;;;1.10;;
22034;SDS011;11181;51.002;4.356;2023-04-23T11:40:04;5.63;;;1.33;;
22034;SDS011;11181;51.002;4.356;2023-04-23T11:42:39;3.27;;;1.23;;
22034;SDS011;11181;51.002;4.356;2023-04-23T11:45:13;4.43;;;1.40;;
22034;SDS011;11181;51.002;4.356;2023-04-23T11:47:42;4.33;;;1.40;;
22034;SDS011;11181;51.002;4.356;2023-04-23T11:50:11;6.13;;;1.80;;
22034;SDS011;11181;51.002;4.356;2023-04-23T11:52:43;6.40;;;1.73;;
22034;SDS011;11181;51.002;4.356;2023-04-23T11:55:10;5.00;;;1.47;;
22034;SDS011;11181;51.002;4.356;2023-04-23T11:57:40;5.13;;;1.30;;
22034;SDS011;11181;51.002;4.356;2023-04-23T12:00:11;2.33;;;1.00;;
22034;SDS011;11181;51.002;4.356;2023-04-23T12:02:49;3.93;;;1.00;;
22034;SDS011;11181;51.002;4.356;2023-04-23T12:05:20;4.30;;;1.13;;
22034;SDS011;11181;51.002;4.356;2023-04-23T12:07:48;2.40;;;1.23;;
22034;SDS011;11181;51.002;4.356;2023-04-23T12:10:16;4.77;;;1.10;;
22034;SDS011;11181;51.002;4.356;2023-04-23T12:12:47;2.43;;;1.30;;
22034;SDS011;11181;51.002;4.356;2023-04-23T12:15:15;4.83;;;1.40;;
22034;SDS011;11181;51.002;4.356;2023-04-23T12:17:46;3.53;;;1.40;;
22034;SDS011;11181;51.002;4.356;2023-04-23T12:20:15;3.90;;;2.33;;
22034;SDS011;11181;51.002;4.356;2023-04-23T12:22:45;5.17;;;1.40;;
22034;SDS011;11181;51.002;4.356;2023-04-23T12:25:12;4.17;;;1.60;;
22034;SDS011;11181;51.002;4.356;2023-04-23T12:27:40;8.33;;;2.00;;
22034;SDS011;11181;51.002;4.356;2023-04-23T12:30:09;4.17;;;1.87;;
22034;SDS011;11181;51.002;4.356;2023-04-23T12:32:37;4.27;;;1.60;;
22034;SDS011;11181;51.002;4.356;2023-04-23T12:35:04;5.53;;;1.87;;
22034;SDS011;11181;51.002;4.356;2023-04-23T12:37:34;3.37;;;1.20;;
22034;SDS011;11181;51.002;4.356;2023-04-23T12:40:04;7.07;;;1.70;;
22034;SDS011;11181;51.002;4.356;2023-04-23T12:42:32;4.60;;;1.40;;
22034;SDS011;11181;51.002;4.356;2023-04-23T12:45:04;5.00;;;1.50;;
22034;SDS011;11181;51.002;4.356;2023-04-23T12:47:32;4.20;;;1.40;;
22034;SDS011;11181;51.002;4.356;2023-04-23T12:49:59;3.40;;;1.30;;
22034;SDS011;11181;51.002;4.356;2023-04-23T12:52:28;5.47;;;1.80;;
22034;SDS011;11181;51.002;4.356;2023-04-23T12:54:55;4.23;;;1.90;;
22034;SDS011;11181;51.002;4.356;2023-04-23T12:57:26;7.53;;;1.70;;
22034;SDS011;11181;51.002;4.356;2023-04-23T12:59:53;3.03;;;1.47;;
22034;SDS011;11181;51.002;4.356;2023-04-23T13:02:21;4.80;;;1.70;;
22034;SDS011;11181;51.002;4.356;2023-04-23T13:04:49;1.73;;;1.27;;
22034;SDS011;11181;51.002;4.356;2023-04-23T13:07:15;2.83;;;2.10;;
22034;SDS011;11181;51.002;4.356;2023-04-23T13:09:42;3.50;;;1.67;;
22034;SDS011;11181;51.002;4.356;2023-04-23T13:12:09;6.77;;;1.50;;
22034;SDS011;11181;51.002;4.356;2023-04-23T13:14:38;3.70;;;1.50;;
22034;SDS011;11181;51.002;4.356;2023-04-23T13:17:05;2.53;;;1.20;;
22034;SDS011;11181;51.002;4.356;2023-04-23T13:19:32;3.60;;;1.27;;
22034;SDS011;11181;51.002;4.356;2023-04-23T13:22:01;3.93;;;1.27;;
22034;SDS011;11181;51.002;4.356;2023-04-23T13:24:28;4.47;;;1.30;;
22034;SDS011;11181;51.002;4.356;2023-04-23T13:26:55;3.67;;;1.60;;
22034;SDS011;11181;51.002;4.356;2023-04-23T13:29:22;4.13;;;1.70;;
22034;SDS011;11181;51.002;4.356;2023-04-23T13:31:52;5.00;;;2.57;;
22034;SDS011;11181;51.002;4.356;2023-04-23T13:34:19;3.97;;;1.13;;
22034;SDS011;11181;51.002;4.356;2023-04-23T13:36:46;3.50;;;1.43;;
22034;SDS011;11181;51.002;4.356;2023-04-23T13:39:13;3.83;;;1.30;;
22034;SDS011;11181;51.002;4.356;2023-04-23T13:41:42;6.07;;;1.40;;
22034;SDS011;11181;51.002;4.356;2023-04-23T13:44:09;2.80;;;1.10;;
22034;SDS011;11181;51.002;4.356;2023-04-23T13:46:37;7.07;;;1.60;;
22034;SDS011;11181;51.002;4.356;2023-04-23T13:49:06;2.43;;;1.80;;
22034;SDS011;11181;51.002;4.356;2023-04-23T13:51:33;3.93;;;1.93;;
22034;SDS011;11181;51.002;4.356;2023-04-23T13:54:00;4.30;;;1.40;;
22034;SDS011;11181;51.002;4.356;2023-04-23T13:56:28;1.53;;;1.20;;
22034;SDS011;11181;51.002;4.356;2023-04-23T13:58:55;2.80;;;1.30;;
22034;SDS011;11181;51.002;4.356;2023-04-23T14:01:26;2.50;;;1.33;;
22034;SDS011;11181;51.002;4.356;2023-04-23T14:03:54;2.27;;;1.33;;
22034;SDS011;11181;51.002;4.356;2023-04-23T14:06:22;3.63;;;1.07;;
22034;SDS011;11181;51.002;4.356;2023-04-23T14:08:49;1.80;;;1.30;;
22034;SDS011;11181;51.002;4.356;2023-04-23T14:11:16;1.77;;;1.23;;
22034;SDS011;11181;51.002;4.356;2023-04-23T14:13:43;1.73;;;1.20;;
22034;SDS011;11181;51.002;4.356;2023-04-23T14:16:10;3.20;;;2.10;;
22034;SDS011;11181;51.002;4.356;2023-04-23T14:18:37;2.00;;;1.20;;
22034;SDS011;11181;51.002;4.356;2023-04-23T14:21:03;1.30;;;1.17;;
22034;SDS011;11181;51.002;4.356;2023-04-23T14:23:54;2.83;;;1.30;;
22034;SDS011;11181;51.002;4.356;2023-04-23T14:26:26;1.87;;;1.47;;
22034;SDS011;11181;51.002;4.356;2023-04-23T14:28:56;4.77;;;1.90;;
22034;SDS011;11181;51.002;4.356;2023-04-23T14:31:27;2.50;;;1.93;;
22034;SDS011;11181;51.002;4.356;2023-04-23T14:33:55;5.70;;;1.77;;
22034;SDS011;11181;51.002;4.356;2023-04-23T14:36:22;3.23;;;1.50;;
22034;SDS011;11181;51.002;4.356;2023-04-23T14:38:51;2.47;;;1.40;;
22034;SDS011;11181;51.002;4.356;2023-04-23T14:41:18;2.77;;;1.90;;
22034;SDS011;11181;51.002;4.356;2023-04-23T14:43:45;4.03;;;2.00;;
22034;SDS011;11181;51.002;4.356;2023-04-23T14:46:11;2.53;;;1.50;;